Sumiha, Russia
Current Conditions -  °F | °C
As of 10:30 PM on Thursday 30 Oct 2014 (Local Time) from USCC Reporting Station
Clear Clear  
Wind Chill: 31°   Ceiling: Unl
Heat Index: 37°   Visibility: 6mi
Dew Point: 30°   Wind: 9mph
Humidity: 75%   Direction: 280°W
Pressure: 30.15"   Gusts: NA
Location:  55.23°N, 63.32°E
Report Text: USCC 301730Z 28004MPS CAVOK 03/M01 Q1021 27000060 NOSIG RMKQFE745
Loading
Personal Weather Stations






























Interactive Weather Map
Tropical Storm Tracking
New forecast layout! Learn more

10-Day Weather Forecast

Advertisements
Track Severe Weather on mobile